sensor_id;sensor_type;location;lat;lon;timestamp;pressure;altitude;pressure_sealevel;temperature;humidity
5283;BME280;15376;48.540;9.268;2024-01-06T00:01:59;96345.00;;;5.45;100.00
5283;BME280;15376;48.540;9.268;2024-01-06T00:04:25;96343.94;;;5.31;100.00
5283;BME280;15376;48.540;9.268;2024-01-06T00:06:50;96355.41;;;5.38;100.00
5283;BME280;15376;48.540;9.268;2024-01-06T00:09:15;96355.13;;;5.33;100.00
5283;BME280;15376;48.540;9.268;2024-01-06T00:11:41;96338.03;;;5.14;100.00
5283;BME280;15376;48.540;9.268;2024-01-06T00:14:06;96345.41;;;5.19;100.00
5283;BME280;15376;48.540;9.268;2024-01-06T00:16:31;96345.19;;;5.20;100.00
5283;BME280;15376;48.540;9.268;2024-01-06T00:18:57;96349.03;;;5.18;100.00
5283;BME280;15376;48.540;9.268;2024-01-06T00:21:22;96333.94;;;5.12;100.00
5283;BME280;15376;48.540;9.268;2024-01-06T00:23:47;96362.09;;;5.26;100.00
5283;BME280;15376;48.540;9.268;2024-01-06T00:26:13;96368.81;;;5.28;100.00
5283;BME280;15376;48.540;9.268;2024-01-06T00:28:41;96353.00;;;5.14;100.00
5283;BME280;15376;48.540;9.268;2024-01-06T00:31:06;96365.25;;;5.21;100.00
5283;BME280;15376;48.540;9.268;2024-01-06T00:33:31;96359.81;;;5.23;100.00
5283;BME280;15376;48.540;9.268;2024-01-06T00:35:57;96353.56;;;5.24;100.00
5283;BME280;15376;48.540;9.268;2024-01-06T00:38:22;96354.19;;;5.26;100.00
5283;BME280;15376;48.540;9.268;2024-01-06T00:40:47;96349.09;;;5.24;100.00
5283;BME280;15376;48.540;9.268;2024-01-06T00:43:13;96360.63;;;5.23;100.00
5283;BME280;15376;48.540;9.268;2024-01-06T00:45:41;96350.19;;;5.15;100.00
5283;BME280;15376;48.540;9.268;2024-01-06T00:48:06;96348.09;;;5.11;100.00
5283;BME280;15376;48.540;9.268;2024-01-06T00:50:32;96359.16;;;5.21;100.00
5283;BME280;15376;48.540;9.268;2024-01-06T00:52:57;96367.69;;;5.23;100.00
5283;BME280;15376;48.540;9.268;2024-01-06T00:55:22;96369.97;;;5.26;100.00
5283;BME280;15376;48.540;9.268;2024-01-06T00:57:48;96349.91;;;5.10;100.00
5283;BME280;15376;48.540;9.268;2024-01-06T01:00:14;96365.16;;;5.15;100.00
5283;BME280;15376;48.540;9.268;2024-01-06T01:02:40;96347.16;;;5.03;100.00
5283;BME280;15376;48.540;9.268;2024-01-06T01:05:05;96367.78;;;5.15;100.00
5283;BME280;15376;48.540;9.268;2024-01-06T01:07:33;96365.81;;;5.17;100.00
5283;BME280;15376;48.540;9.268;2024-01-06T01:09:58;96369.19;;;5.02;100.00
5283;BME280;15376;48.540;9.268;2024-01-06T01:12:24;96367.25;;;4.96;100.00
5283;BME280;15376;48.540;9.268;2024-01-06T01:14:49;96380.47;;;4.88;100.00
5283;BME280;15376;48.540;9.268;2024-01-06T01:17:16;96374.84;;;4.91;100.00
5283;BME280;15376;48.540;9.268;2024-01-06T01:19:41;96376.16;;;4.95;100.00
5283;BME280;15376;48.540;9.268;2024-01-06T01:22:06;96355.25;;;4.79;100.00
5283;BME280;15376;48.540;9.268;2024-01-06T01:24:32;96374.50;;;4.94;100.00
5283;BME280;15376;48.540;9.268;2024-01-06T01:26:57;96379.13;;;4.92;100.00
5283;BME280;15376;48.540;9.268;2024-01-06T01:29:23;96363.41;;;4.84;100.00
5283;BME280;15376;48.540;9.268;2024-01-06T01:31:48;96370.59;;;4.90;100.00
5283;BME280;15376;48.540;9.268;2024-01-06T01:34:13;96390.88;;;5.05;100.00
5283;BME280;15376;48.540;9.268;2024-01-06T01:36:40;96394.50;;;5.03;100.00
5283;BME280;15376;48.540;9.268;2024-01-06T01:39:05;96391.06;;;5.03;100.00
5283;BME280;15376;48.540;9.268;2024-01-06T01:41:30;96398.34;;;4.93;100.00
5283;BME280;15376;48.540;9.268;2024-01-06T01:43:56;96402.97;;;4.91;100.00
5283;BME280;15376;48.540;9.268;2024-01-06T01:46:27;96391.22;;;4.79;100.00
5283;BME280;15376;48.540;9.268;2024-01-06T01:48:54;96416.59;;;4.94;100.00
5283;BME280;15376;48.540;9.268;2024-01-06T01:51:20;96411.34;;;4.94;100.00
5283;BME280;15376;48.540;9.268;2024-01-06T01:53:46;96388.13;;;4.75;100.00
5283;BME280;15376;48.540;9.268;2024-01-06T01:56:11;96359.50;;;4.49;100.00
5283;BME280;15376;48.540;9.268;2024-01-06T01:58:37;96422.72;;;4.87;100.00
5283;BME280;15376;48.540;9.268;2024-01-06T02:01:03;96419.44;;;4.85;100.00
5283;BME280;15376;48.540;9.268;2024-01-06T02:03:30;96417.28;;;4.88;100.00
5283;BME280;15376;48.540;9.268;2024-01-06T02:05:55;96416.81;;;4.85;100.00
5283;BME280;15376;48.540;9.268;2024-01-06T02:08:21;96414.44;;;4.75;100.00
5283;BME280;15376;48.540;9.268;2024-01-06T02:10:46;96421.97;;;4.78;100.00
5283;BME280;15376;48.540;9.268;2024-01-06T02:13:12;96410.03;;;4.67;100.00
5283;BME280;15376;48.540;9.268;2024-01-06T02:15:38;96415.41;;;4.74;100.00
5283;BME280;15376;48.540;9.268;2024-01-06T02:18:03;96429.22;;;4.76;100.00
5283;BME280;15376;48.540;9.268;2024-01-06T02:20:31;96425.59;;;4.77;100.00
5283;BME280;15376;48.540;9.268;2024-01-06T02:22:57;96421.41;;;4.60;100.00
5283;BME280;15376;48.540;9.268;2024-01-06T02:25:24;96390.91;;;4.43;100.00
5283;BME280;15376;48.540;9.268;2024-01-06T02:27:49;96434.81;;;4.73;100.00
5283;BME280;15376;48.540;9.268;2024-01-06T02:30:14;96425.31;;;4.64;100.00
5283;BME280;15376;48.540;9.268;2024-01-06T02:32:40;96423.06;;;4.53;100.00
5283;BME280;15376;48.540;9.268;2024-01-06T02:35:06;96446.66;;;4.69;100.00
5283;BME280;15376;48.540;9.268;2024-01-06T02:37:31;96448.31;;;4.70;100.00
5283;BME280;15376;48.540;9.268;2024-01-06T02:39:57;96429.44;;;4.58;100.00
5283;BME280;15376;48.540;9.268;2024-01-06T02:42:22;96422.03;;;4.62;100.00
5283;BME280;15376;48.540;9.268;2024-01-06T02:44:49;96423.50;;;4.64;100.00
5283;BME280;15376;48.540;9.268;2024-01-06T02:47:14;96442.69;;;4.73;100.00
5283;BME280;15376;48.540;9.268;2024-01-06T02:49:39;96420.06;;;4.64;100.00
5283;BME280;15376;48.540;9.268;2024-01-06T02:52:05;96414.81;;;4.64;100.00
5283;BME280;15376;48.540;9.268;2024-01-06T02:54:30;96412.81;;;4.66;100.00
5283;BME280;15376;48.540;9.268;2024-01-06T02:56:56;96418.09;;;4.66;100.00
5283;BME280;15376;48.540;9.268;2024-01-06T02:59:21;96426.63;;;4.68;100.00
5283;BME280;15376;48.540;9.268;2024-01-06T03:01:46;96433.81;;;4.74;100.00
5283;BME280;15376;48.540;9.268;2024-01-06T03:04:12;96418.75;;;4.60;100.00
5283;BME280;15376;48.540;9.268;2024-01-06T03:06:37;96444.03;;;4.69;100.00
5283;BME280;15376;48.540;9.268;2024-01-06T03:09:02;96443.38;;;4.67;100.00
5283;BME280;15376;48.540;9.268;2024-01-06T03:11:28;96423.06;;;4.53;100.00
5283;BME280;15376;48.540;9.268;2024-01-06T03:13:53;96420.41;;;4.61;100.00
5283;BME280;15376;48.540;9.268;2024-01-06T03:16:18;96350.81;;;4.18;100.00
5283;BME280;15376;48.540;9.268;2024-01-06T03:18:43;96384.00;;;4.42;100.00
5283;BME280;15376;48.540;9.268;2024-01-06T03:21:21;96427.94;;;4.64;100.00
5283;BME280;15376;48.540;9.268;2024-01-06T03:23:48;96433.38;;;4.62;100.00
5283;BME280;15376;48.540;9.268;2024-01-06T03:26:14;96429.94;;;4.62;100.00
5283;BME280;15376;48.540;9.268;2024-01-06T03:28:39;96430.91;;;4.61;100.00
5283;BME280;15376;48.540;9.268;2024-01-06T03:31:04;96419.97;;;4.49;100.00
5283;BME280;15376;48.540;9.268;2024-01-06T03:33:30;96425.69;;;4.53;100.00
5283;BME280;15376;48.540;9.268;2024-01-06T03:35:55;96402.59;;;4.40;100.00
5283;BME280;15376;48.540;9.268;2024-01-06T03:38:20;96409.69;;;4.40;100.00
5283;BME280;15376;48.540;9.268;2024-01-06T03:40:46;96412.75;;;4.43;100.00
5283;BME280;15376;48.540;9.268;2024-01-06T03:43:11;96407.66;;;4.42;100.00
5283;BME280;15376;48.540;9.268;2024-01-06T03:45:36;96430.13;;;4.52;100.00
5283;BME280;15376;48.540;9.268;2024-01-06T03:48:02;96419.16;;;4.41;100.00
5283;BME280;15376;48.540;9.268;2024-01-06T03:50:27;96430.81;;;4.46;100.00
5283;BME280;15376;48.540;9.268;2024-01-06T03:52:52;96437.41;;;4.42;100.00
5283;BME280;15376;48.540;9.268;2024-01-06T03:55:18;96430.88;;;4.38;100.00
5283;BME280;15376;48.540;9.268;2024-01-06T03:57:43;96423.16;;;4.37;100.00
5283;BME280;15376;48.540;9.268;2024-01-06T04:00:09;96438.22;;;4.43;100.00
5283;BME280;15376;48.540;9.268;2024-01-06T04:02:34;96438.22;;;4.43;100.00
5283;BME280;15376;48.540;9.268;2024-01-06T04:05:00;96419.56;;;4.29;100.00
5283;BME280;15376;48.540;9.268;2024-01-06T04:07:25;96435.34;;;4.29;100.00
5283;BME280;15376;48.540;9.268;2024-01-06T04:09:50;96440.59;;;4.29;100.00
5283;BME280;15376;48.540;9.268;2024-01-06T04:12:16;96462.63;;;4.20;100.00
5283;BME280;15376;48.540;9.268;2024-01-06T04:14:41;96436.09;;;3.99;100.00
5283;BME280;15376;48.540;9.268;2024-01-06T04:17:07;96454.91;;;4.11;100.00
5283;BME280;15376;48.540;9.268;2024-01-06T04:19:32;96425.59;;;3.99;100.00
5283;BME280;15376;48.540;9.268;2024-01-06T04:21:59;96453.72;;;4.29;100.00
5283;BME280;15376;48.540;9.268;2024-01-06T04:24:25;96439.97;;;4.19;100.00
5283;BME280;15376;48.540;9.268;2024-01-06T04:26:50;96444.56;;;4.17;100.00
5283;BME280;15376;48.540;9.268;2024-01-06T04:29:15;96461.47;;;4.23;100.00
5283;BME280;15376;48.540;9.268;2024-01-06T04:31:41;96462.13;;;4.25;100.00
5283;BME280;15376;48.540;9.268;2024-01-06T04:34:06;96457.34;;;4.28;100.00
5283;BME280;15376;48.540;9.268;2024-01-06T04:36:32;96451.59;;;4.25;100.00
5283;BME280;15376;48.540;9.268;2024-01-06T04:38:57;96463.59;;;4.27;100.00
5283;BME280;15376;48.540;9.268;2024-01-06T04:41:23;96459.00;;;4.21;100.00
5283;BME280;15376;48.540;9.268;2024-01-06T04:43:48;96463.28;;;4.14;100.00
5283;BME280;15376;48.540;9.268;2024-01-06T04:46:13;96463.28;;;4.06;100.00
5283;BME280;15376;48.540;9.268;2024-01-06T04:48:42;96463.97;;;4.00;100.00
5283;BME280;15376;48.540;9.268;2024-01-06T04:51:09;96441.03;;;3.86;100.00
5283;BME280;15376;48.540;9.268;2024-01-06T04:53:38;96473.84;;;3.98;100.00
5283;BME280;15376;48.540;9.268;2024-01-06T04:56:04;96453.50;;;3.84;100.00
5283;BME280;15376;48.540;9.268;2024-01-06T04:58:29;96477.44;;;3.97;100.00
5283;BME280;15376;48.540;9.268;2024-01-06T05:00:54;96460.56;;;3.91;100.00
5283;BME280;15376;48.540;9.268;2024-01-06T05:03:20;96468.09;;;3.94;100.00
5283;BME280;15376;48.540;9.268;2024-01-06T05:05:46;96477.28;;;3.98;100.00
5283;BME280;15376;48.540;9.268;2024-01-06T05:08:12;96487.63;;;3.92;100.00
5283;BME280;15376;48.540;9.268;2024-01-06T05:10:37;96467.47;;;3.76;100.00
5283;BME280;15376;48.540;9.268;2024-01-06T05:13:02;96482.38;;;3.84;100.00
5283;BME280;15376;48.540;9.268;2024-01-06T05:15:28;96477.78;;;3.86;100.00
5283;BME280;15376;48.540;9.268;2024-01-06T05:17:53;96466.81;;;3.82;100.00
5283;BME280;15376;48.540;9.268;2024-01-06T05:20:19;96488.63;;;3.99;100.00
5283;BME280;15376;48.540;9.268;2024-01-06T05:22:44;96488.25;;;4.02;100.00
5283;BME280;15376;48.540;9.268;2024-01-06T05:25:09;96473.19;;;3.96;100.00
5283;BME280;15376;48.540;9.268;2024-01-06T05:27:35;96490.88;;;4.10;100.00
5283;BME280;15376;48.540;9.268;2024-01-06T05:30:01;96486.44;;;4.11;100.00
5283;BME280;15376;48.540;9.268;2024-01-06T05:32:26;96488.56;;;4.15;100.00
5283;BME280;15376;48.540;9.268;2024-01-06T05:34:52;96492.50;;;4.11;100.00
5283;BME280;15376;48.540;9.268;2024-01-06T05:37:17;96474.84;;;3.97;100.00
5283;BME280;15376;48.540;9.268;2024-01-06T05:39:42;96494.31;;;4.19;100.00
5283;BME280;15376;48.540;9.268;2024-01-06T05:42:09;96490.88;;;4.10;100.00
5283;BME280;15376;48.540;9.268;2024-01-06T05:44:36;96506.28;;;4.21;100.00
5283;BME280;15376;48.540;9.268;2024-01-06T05:47:02;96502.03;;;4.20;100.00
5283;BME280;15376;48.540;9.268;2024-01-06T05:49:28;96410.19;;;3.63;100.00
5283;BME280;15376;48.540;9.268;2024-01-06T05:51:53;96487.25;;;4.11;100.00
5283;BME280;15376;48.540;9.268;2024-01-06T05:54:18;96504.66;;;4.12;100.00
5283;BME280;15376;48.540;9.268;2024-01-06T05:56:44;96507.63;;;4.09;100.00
5283;BME280;15376;48.540;9.268;2024-01-06T05:59:09;96514.50;;;4.18;100.00
5283;BME280;15376;48.540;9.268;2024-01-06T06:01:34;96515.81;;;4.22;100.00
5283;BME280;15376;48.540;9.268;2024-01-06T06:03:59;96499.06;;;4.15;100.00
5283;BME280;15376;48.540;9.268;2024-01-06T06:06:25;96520.91;;;4.24;100.00
5283;BME280;15376;48.540;9.268;2024-01-06T06:08:50;96521.91;;;4.23;100.00
5283;BME280;15376;48.540;9.268;2024-01-06T06:11:16;96525.81;;;4.27;100.00
5283;BME280;15376;48.540;9.268;2024-01-06T06:13:41;96526.81;;;4.26;100.00
5283;BME280;15376;48.540;9.268;2024-01-06T06:16:09;96537.50;;;4.24;100.00
5283;BME280;15376;48.540;9.268;2024-01-06T06:18:34;96534.22;;;4.22;100.00
5283;BME280;15376;48.540;9.268;2024-01-06T06:21:00;96534.88;;;4.16;100.00
5283;BME280;15376;48.540;9.268;2024-01-06T06:23:29;96480.41;;;3.78;100.00
5283;BME280;15376;48.540;9.268;2024-01-06T06:25:55;96552.59;;;4.22;100.00
5283;BME280;15376;48.540;9.268;2024-01-06T06:28:20;96542.75;;;4.16;100.00
5283;BME280;15376;48.540;9.268;2024-01-06T06:30:45;96542.75;;;4.16;100.00
5283;BME280;15376;48.540;9.268;2024-01-06T06:33:11;96551.13;;;4.20;100.00
5283;BME280;15376;48.540;9.268;2024-01-06T06:35:37;96562.47;;;4.20;100.00
5283;BME280;15376;48.540;9.268;2024-01-06T06:38:02;96542.75;;;4.00;100.00
5283;BME280;15376;48.540;9.268;2024-01-06T06:40:28;96539.16;;;4.01;100.00
5283;BME280;15376;48.540;9.268;2024-01-06T06:42:54;96567.72;;;4.12;100.00
5283;BME280;15376;48.540;9.268;2024-01-06T06:45:19;96564.75;;;4.07;100.00
5283;BME280;15376;48.540;9.268;2024-01-06T06:47:48;96537.84;;;3.81;100.00
5283;BME280;15376;48.540;9.268;2024-01-06T06:50:15;96576.56;;;4.03;100.00
5283;BME280;15376;48.540;9.268;2024-01-06T06:52:40;96554.13;;;3.92;100.00
5283;BME280;15376;48.540;9.268;2024-01-06T06:55:07;96551.00;;;3.89;100.00
5283;BME280;15376;48.540;9.268;2024-01-06T06:57:32;96573.50;;;3.99;100.00
5283;BME280;15376;48.540;9.268;2024-01-06T06:59:58;96580.03;;;4.03;100.00
5283;BME280;15376;48.540;9.268;2024-01-06T07:02:23;96561.00;;;3.93;100.00
5283;BME280;15376;48.540;9.268;2024-01-06T07:04:48;96566.75;;;3.97;100.00
5283;BME280;15376;48.540;9.268;2024-01-06T07:07:14;96573.50;;;3.99;100.00
5283;BME280;15376;48.540;9.268;2024-01-06T07:09:40;96588.72;;;4.12;100.00
5283;BME280;15376;48.540;9.268;2024-01-06T07:12:05;96580.34;;;4.09;100.00
5283;BME280;15376;48.540;9.268;2024-01-06T07:14:31;96576.13;;;3.99;100.00
5283;BME280;15376;48.540;9.268;2024-01-06T07:16:56;96592.66;;;4.08;100.00
5283;BME280;15376;48.540;9.268;2024-01-06T07:19:23;96594.97;;;4.11;100.00
5283;BME280;15376;48.540;9.268;2024-01-06T07:21:48;96594.81;;;4.13;100.00
5283;BME280;15376;48.540;9.268;2024-01-06T07:24:14;96594.81;;;4.13;100.00
5283;BME280;15376;48.540;9.268;2024-01-06T07:26:39;96585.59;;;4.00;100.00
5283;BME280;15376;48.540;9.268;2024-01-06T07:29:04;96589.38;;;4.06;100.00
5283;BME280;15376;48.540;9.268;2024-01-06T07:31:30;96601.22;;;4.10;100.00
5283;BME280;15376;48.540;9.268;2024-01-06T07:33:55;96607.13;;;4.12;100.00
5283;BME280;15376;48.540;9.268;2024-01-06T07:36:20;96586.44;;;4.01;100.00
5283;BME280;15376;48.540;9.268;2024-01-06T07:38:46;96597.59;;;4.03;100.00
5283;BME280;15376;48.540;9.268;2024-01-06T07:41:12;96602.84;;;4.11;100.00
5283;BME280;15376;48.540;9.268;2024-01-06T07:43:37;96615.50;;;4.16;100.00
5283;BME280;15376;48.540;9.268;2024-01-06T07:46:03;96620.59;;;4.17;100.00
5283;BME280;15376;48.540;9.268;2024-01-06T07:48:29;96613.69;;;4.08;100.00
5283;BME280;15376;48.540;9.268;2024-01-06T07:50:54;96623.06;;;4.19;100.00
5283;BME280;15376;48.540;9.268;2024-01-06T07:53:19;96612.38;;;4.20;100.00
5283;BME280;15376;48.540;9.268;2024-01-06T07:55:45;96601.22;;;4.10;100.00
5283;BME280;15376;48.540;9.268;2024-01-06T07:58:10;96616.00;;;4.19;100.00
5283;BME280;15376;48.540;9.268;2024-01-06T08:00:37;96624.53;;;4.21;100.00
5283;BME280;15376;48.540;9.268;2024-01-06T08:03:02;96604.97;;;4.16;100.00
5283;BME280;15376;48.540;9.268;2024-01-06T08:05:31;96613.84;;;4.31;100.00
5283;BME280;15376;48.540;9.268;2024-01-06T08:07:56;96604.16;;;4.15;100.00
5283;BME280;15376;48.540;9.268;2024-01-06T08:10:21;96622.72;;;4.30;100.00
5283;BME280;15376;48.540;9.268;2024-01-06T08:12:47;96613.38;;;4.27;100.00
5283;BME280;15376;48.540;9.268;2024-01-06T08:15:13;96617.47;;;4.38;100.00
5283;BME280;15376;48.540;9.268;2024-01-06T08:17:38;96624.00;;;4.42;100.00
5283;BME280;15376;48.540;9.268;2024-01-06T08:20:06;96622.84;;;4.53;100.00
5283;BME280;15376;48.540;9.268;2024-01-06T08:22:32;96602.16;;;4.50;100.00
5283;BME280;15376;48.540;9.268;2024-01-06T08:24:57;96580.50;;;4.40;100.00
5283;BME280;15376;48.540;9.268;2024-01-06T08:27:22;96613.00;;;4.63;100.00
5283;BME280;15376;48.540;9.268;2024-01-06T08:29:49;96609.03;;;4.67;100.00
5283;BME280;15376;48.540;9.268;2024-01-06T08:32:15;96634.81;;;4.80;100.00
5283;BME280;15376;48.540;9.268;2024-01-06T08:34:41;96609.38;;;4.64;100.00
5283;BME280;15376;48.540;9.268;2024-01-06T08:37:07;96629.06;;;4.76;100.00
5283;BME280;15376;48.540;9.268;2024-01-06T08:39:32;96624.31;;;4.80;100.00
5283;BME280;15376;48.540;9.268;2024-01-06T08:41:58;96636.94;;;4.84;100.00
5283;BME280;15376;48.540;9.268;2024-01-06T08:44:23;96636.25;;;4.90;100.00
5283;BME280;15376;48.540;9.268;2024-01-06T08:46:49;96624.91;;;4.90;100.00
5283;BME280;15376;48.540;9.268;2024-01-06T08:49:15;96645.59;;;5.09;100.00
5283;BME280;15376;48.540;9.268;2024-01-06T08:51:40;96641.28;;;5.16;100.00
5283;BME280;15376;48.540;9.268;2024-01-06T08:54:06;96656.53;;;5.29;100.00
5283;BME280;15376;48.540;9.268;2024-01-06T08:56:33;96652.53;;;5.41;100.00
5283;BME280;15376;48.540;9.268;2024-01-06T08:58:58;96646.59;;;5.47;100.00
5283;BME280;15376;48.540;9.268;2024-01-06T09:01:24;96642.28;;;5.54;100.00
5283;BME280;15376;48.540;9.268;2024-01-06T09:03:49;96631.94;;;5.45;100.00
5283;BME280;15376;48.540;9.268;2024-01-06T09:06:15;96621.59;;;5.43;100.00
5283;BME280;15376;48.540;9.268;2024-01-06T09:08:41;96645.50;;;5.64;100.00
5283;BME280;15376;48.540;9.268;2024-01-06T09:11:06;96651.03;;;5.78;100.00
5283;BME280;15376;48.540;9.268;2024-01-06T09:13:31;96634.28;;;5.70;100.00
5283;BME280;15376;48.540;9.268;2024-01-06T09:15:58;96634.97;;;5.64;100.00
5283;BME280;15376;48.540;9.268;2024-01-06T09:18:25;96621.88;;;5.56;100.00
5283;BME280;15376;48.540;9.268;2024-01-06T09:20:50;96649.38;;;5.77;100.00
5283;BME280;15376;48.540;9.268;2024-01-06T09:23:16;96648.44;;;5.69;100.00
5283;BME280;15376;48.540;9.268;2024-01-06T09:25:41;96653.00;;;5.76;100.00
5283;BME280;15376;48.540;9.268;2024-01-06T09:28:06;96670.81;;;5.74;100.00
5283;BME280;15376;48.540;9.268;2024-01-06T09:30:32;96669.78;;;5.83;100.00
5283;BME280;15376;48.540;9.268;2024-01-06T09:32:57;96668.13;;;5.82;100.00
5283;BME280;15376;48.540;9.268;2024-01-06T09:35:23;96670.06;;;5.96;100.00
5283;BME280;15376;48.540;9.268;2024-01-06T09:37:49;96681.44;;;5.96;100.00
5283;BME280;15376;48.540;9.268;2024-01-06T09:40:23;96667.44;;;5.88;100.00
5283;BME280;15376;48.540;9.268;2024-01-06T09:42:50;96674.16;;;5.98;100.00
5283;BME280;15376;48.540;9.268;2024-01-06T09:45:16;96680.19;;;6.07;100.00
5283;BME280;15376;48.540;9.268;2024-01-06T09:47:41;96675.75;;;6.30;100.00
5283;BME280;15376;48.540;9.268;2024-01-06T09:50:08;96650.16;;;6.16;100.00
5283;BME280;15376;48.540;9.268;2024-01-06T09:52:39;96683.06;;;6.43;100.00
5283;BME280;15376;48.540;9.268;2024-01-06T09:55:11;96683.66;;;6.30;100.00
5283;BME280;15376;48.540;9.268;2024-01-06T09:57:37;96679.09;;;6.24;100.00
5283;BME280;15376;48.540;9.268;2024-01-06T10:00:02;96671.47;;;6.29;100.00
5283;BME280;15376;48.540;9.268;2024-01-06T10:02:29;96687.81;;;6.25;100.00
5283;BME280;15376;48.540;9.268;2024-01-06T10:04:57;96686.34;;;6.22;100.00
5283;BME280;15376;48.540;9.268;2024-01-06T10:07:22;96670.63;;;6.06;100.00
5283;BME280;15376;48.540;9.268;2024-01-06T10:09:48;96679.66;;;6.12;100.00
5283;BME280;15376;48.540;9.268;2024-01-06T10:12:14;96665.16;;;5.93;100.00
5283;BME280;15376;48.540;9.268;2024-01-06T10:14:39;96684.63;;;6.07;100.00
5283;BME280;15376;48.540;9.268;2024-01-06T10:17:08;96690.44;;;6.02;100.00
5283;BME280;15376;48.540;9.268;2024-01-06T10:19:35;96688.53;;;5.88;100.00
5283;BME280;15376;48.540;9.268;2024-01-06T10:22:00;96678.38;;;5.77;100.00
5283;BME280;15376;48.540;9.268;2024-01-06T10:24:27;96690.53;;;5.78;100.00
5283;BME280;15376;48.540;9.268;2024-01-06T10:26:53;96659.13;;;5.68;100.00
5283;BME280;15376;48.540;9.268;2024-01-06T10:29:18;96689.50;;;5.95;100.00
5283;BME280;15376;48.540;9.268;2024-01-06T10:31:43;96683.50;;;6.01;100.00
5283;BME280;15376;48.540;9.268;2024-01-06T10:34:09;96684.22;;;5.95;100.00
5283;BME280;15376;48.540;9.268;2024-01-06T10:36:35;96684.13;;;6.11;100.00
5283;BME280;15376;48.540;9.268;2024-01-06T10:39:02;96678.50;;;6.14;100.00
5283;BME280;15376;48.540;9.268;2024-01-06T10:41:28;96666.31;;;6.13;100.00
5283;BME280;15376;48.540;9.268;2024-01-06T10:43:56;96670.28;;;6.09;100.00
5283;BME280;15376;48.540;9.268;2024-01-06T10:46:24;96678.84;;;6.11;100.00
5283;BME280;15376;48.540;9.268;2024-01-06T10:48:51;96641.34;;;6.01;100.00
5283;BME280;15376;48.540;9.268;2024-01-06T10:51:17;96643.00;;;6.02;100.00
5283;BME280;15376;48.540;9.268;2024-01-06T10:53:44;96665.31;;;6.14;100.00
5283;BME280;15376;48.540;9.268;2024-01-06T10:56:10;96618.44;;;5.79;100.00
5283;BME280;15376;48.540;9.268;2024-01-06T10:58:36;96664.91;;;6.25;100.00
5283;BME280;15376;48.540;9.268;2024-01-06T11:01:11;96651.16;;;6.15;100.00
5283;BME280;15376;48.540;9.268;2024-01-06T11:03:38;96670.66;;;6.29;100.00
5283;BME280;15376;48.540;9.268;2024-01-06T11:06:05;96655.38;;;6.24;100.00
5283;BME280;15376;48.540;9.268;2024-01-06T11:08:33;96673.31;;;6.44;100.00
5283;BME280;15376;48.540;9.268;2024-01-06T11:11:02;96658.94;;;6.31;100.00
5283;BME280;15376;48.540;9.268;2024-01-06T11:13:27;96668.50;;;6.32;100.00
5283;BME280;15376;48.540;9.268;2024-01-06T11:15:53;96660.00;;;6.22;100.00
5283;BME280;15376;48.540;9.268;2024-01-06T11:18:36;96670.78;;;6.35;100.00
5283;BME280;15376;48.540;9.268;2024-01-06T11:21:19;96673.31;;;6.44;100.00
5283;BME280;15376;48.540;9.268;2024-01-06T11:24:13;96668.34;;;6.49;100.00
5283;BME280;15376;48.540;9.268;2024-01-06T11:26:44;96665.72;;;6.49;100.00
5283;BME280;15376;48.540;9.268;2024-01-06T11:29:10;96651.69;;;6.33;100.00
5283;BME280;15376;48.540;9.268;2024-01-06T11:31:37;96645.47;;;6.26;100.00
5283;BME280;15376;48.540;9.268;2024-01-06T11:34:32;96653.31;;;6.34;100.00
5283;BME280;15376;48.540;9.268;2024-01-06T11:37:01;96651.63;;;6.19;100.00
5283;BME280;15376;48.540;9.268;2024-01-06T11:39:37;96654.38;;;6.25;100.00
5283;BME280;15376;48.540;9.268;2024-01-06T11:42:05;96629.22;;;6.15;100.00
5283;BME280;15376;48.540;9.268;2024-01-06T11:44:34;96646.06;;;6.37;100.00
5283;BME280;15376;48.540;9.268;2024-01-06T11:46:59;96653.97;;;6.51;100.00
5283;BME280;15376;48.540;9.268;2024-01-06T11:49:28;96637.09;;;6.60;100.00
5283;BME280;15376;48.540;9.268;2024-01-06T11:51:53;96636.28;;;6.60;100.00
5283;BME280;15376;48.540;9.268;2024-01-06T11:54:21;96639.56;;;6.62;100.00
5283;BME280;15376;48.540;9.268;2024-01-06T11:56:46;96617.31;;;6.42;100.00
5283;BME280;15376;48.540;9.268;2024-01-06T11:59:11;96636.88;;;6.47;100.00
5283;BME280;15376;48.540;9.268;2024-01-06T12:01:38;96642.84;;;6.64;100.00
5283;BME280;15376;48.540;9.268;2024-01-06T12:04:07;96644.97;;;6.46;100.00
5283;BME280;15376;48.540;9.268;2024-01-06T12:06:33;96638.78;;;6.39;100.00
5283;BME280;15376;48.540;9.268;2024-01-06T12:09:11;96614.25;;;6.15;100.00
5283;BME280;15376;48.540;9.268;2024-01-06T12:11:39;96631.81;;;6.23;100.00
5283;BME280;15376;48.540;9.268;2024-01-06T12:14:05;96622.84;;;6.09;100.00
5283;BME280;15376;48.540;9.268;2024-01-06T12:16:31;96621.91;;;6.02;100.00
5283;BME280;15376;48.540;9.268;2024-01-06T12:18:58;96634.56;;;6.07;100.00
5283;BME280;15376;48.540;9.268;2024-01-06T12:21:28;96631.44;;;6.03;100.00
5283;BME280;15376;48.540;9.268;2024-01-06T12:23:54;96622.63;;;5.96;100.00
5283;BME280;15376;48.540;9.268;2024-01-06T12:26:36;96628.25;;;5.93;100.00
5283;BME280;15376;48.540;9.268;2024-01-06T12:29:03;96619.34;;;5.94;100.00
5283;BME280;15376;48.540;9.268;2024-01-06T12:31:29;96625.44;;;5.94;100.00
5283;BME280;15376;48.540;9.268;2024-01-06T12:33:55;96610.31;;;5.88;100.00
5283;BME280;15376;48.540;9.268;2024-01-06T12:36:21;96581.72;;;5.77;100.00
5283;BME280;15376;48.540;9.268;2024-01-06T12:38:46;96624.03;;;6.07;100.00
5283;BME280;15376;48.540;9.268;2024-01-06T12:41:12;96603.53;;;5.94;100.00
5283;BME280;15376;48.540;9.268;2024-01-06T12:43:37;96613.25;;;5.93;100.00
5283;BME280;15376;48.540;9.268;2024-01-06T12:46:03;96617.47;;;6.02;100.00
5283;BME280;15376;48.540;9.268;2024-01-06T12:48:28;96577.31;;;5.69;100.00
5283;BME280;15376;48.540;9.268;2024-01-06T12:50:54;96617.09;;;6.06;100.00
5283;BME280;15376;48.540;9.268;2024-01-06T12:53:19;96592.28;;;6.00;100.00
5283;BME280;15376;48.540;9.268;2024-01-06T12:55:44;96595.72;;;6.00;100.00
5283;BME280;15376;48.540;9.268;2024-01-06T12:58:10;96615.25;;;6.14;100.00
5283;BME280;15376;48.540;9.268;2024-01-06T13:00:36;96623.09;;;6.22;100.00
5283;BME280;15376;48.540;9.268;2024-01-06T13:03:02;96610.66;;;6.08;100.00
5283;BME280;15376;48.540;9.268;2024-01-06T13:05:27;96627.78;;;6.12;100.00